Wetterdaten: Woche 23.01.17 - 29.01.17 (KW4)
Datum Zeit Temp. I. Temp. A. Feuchte I. Feuchte A. Luftdruck Regen Wind Richtung Sonnenschein UV Solar Taupunkt Windchill Windben
23.01.2017 00:00 22,9 C -8,8 C 51 % 82 % 1026,4 hPa 0,0 l/m 0,6 km/h (0 Bft) NW 0,00 h 0,0 UV-I 0 W/m -11,2 C -8,8 C 1,3 km/h (1 Bft)
23.01.2017 01:00 22,8 C -10,2 C 51 % 83 % 1026,3 hPa 0,0 l/m 0,1 km/h (0 Bft) O-NO 0,00 h 0,0 UV-I 0 W/m -12,6 C -10,2 C 0,5 km/h (0 Bft)
23.01.2017 02:00 22,6 C -11,1 C 52 % 86 % 1026,3 hPa 0,0 l/m 0,7 km/h (0 Bft) NW 0,00 h 0,0 UV-I 0 W/m -13,0 C -11,1 C 1,5 km/h (1 Bft)
23.01.2017 03:00 22,5 C -11,5 C 52 % 87 % 1026,1 hPa 0,0 l/m 0,5 km/h (0 Bft) NW 0,00 h 0,0 UV-I 0 W/m -13,2 C -11,5 C 1,2 km/h (1 Bft)
23.01.2017 04:00 22,4 C -12,2 C 52 % 86 % 1026,0 hPa 0,0 l/m 0,0 km/h (0 Bft) N 0,00 h 0,0 UV-I 0 W/m -14,0 C -12,2 C 0,0 km/h (0 Bft)
23.01.2017 05:00 22,3 C -13,1 C 52 % 86 % 1025,9 hPa 0,0 l/m 0,0 km/h (0 Bft) N 0,00 h 0,0 UV-I 0 W/m -14,9 C -13,1 C 0,0 km/h (0 Bft)
23.01.2017 06:00 22,2 C -13,7 C 52 % 86 % 1026,0 hPa 0,0 l/m 0,1 km/h (0 Bft) NW 0,00 h 0,0 UV-I 0 W/m -15,5 C -13,7 C 0,1 km/h (0 Bft)
23.01.2017 07:00 22,5 C -14,2 C 53 % 86 % 1026,3 hPa 0,0 l/m 0,2 km/h (0 Bft) NW 0,00 h 0,0 UV-I 0 W/m -16,0 C -14,2 C 0,3 km/h (0 Bft)
23.01.2017 08:00 22,4 C -14,0 C 53 % 87 % 1026,6 hPa 0,0 l/m 0,0 km/h (0 Bft) N 0,00 h 0,0 UV-I 36 W/m -15,6 C -14,0 C 0,1 km/h (0 Bft)
23.01.2017 09:00 22,4 C -11,4 C 50 % 86 % 1026,7 hPa 0,0 l/m 0,7 km/h (0 Bft) NW 0,40 h 0,6 UV-I 143 W/m -13,4 C -11,4 C 1,4 km/h (1 Bft)
23.01.2017 10:00 22,4 C -7,2 C 49 % 80 % 1026,8 hPa 0,0 l/m 0,2 km/h (0 Bft) NW 1,00 h 0,8 UV-I 254 W/m -10,1 C -7,2 C 0,4 km/h (0 Bft)
23.01.2017 11:00 22,7 C -4,6 C 49 % 77 % 1026,6 hPa 0,0 l/m 0,0 km/h (0 Bft) N 1,00 h 1,1 UV-I 321 W/m -7,9 C -4,6 C 0,0 km/h (0 Bft)
23.01.2017 12:00 22,9 C -2,7 C 49 % 73 % 1025,9 hPa 0,0 l/m 0,0 km/h (0 Bft) N 1,00 h 1,1 UV-I 340 W/m -6,8 C -2,7 C 0,0 km/h (0 Bft)
23.01.2017 13:00 23,7 C -1,2 C 49 % 69 % 1025,2 hPa 0,0 l/m 0,0 km/h (0 Bft) N 1,00 h 1,0 UV-I 304 W/m -6,1 C -1,2 C 0,0 km/h (0 Bft)
23.01.2017 14:00 23,7 C -0,6 C 50 % 69 % 1024,9 hPa 0,0 l/m 0,0 km/h (0 Bft) N 0,92 h 0,7 UV-I 193 W/m -5,6 C -0,6 C 0,0 km/h (0 Bft)
23.01.2017 15:00 23,4 C -0,5 C 49 % 69 % 1025,0 hPa 0,0 l/m 0,0 km/h (0 Bft) N 0,08 h 0,5 UV-I 101 W/m -5,4 C -0,5 C 0,0 km/h (0 Bft)
23.01.2017 16:00 23,4 C -1,9 C 50 % 73 % 1025,4 hPa 0,0 l/m 0,0 km/h (0 Bft) N 0,00 h 0,0 UV-I 23 W/m -6,2 C -1,9 C 0,0 km/h (0 Bft)
23.01.2017 17:00 23,5 C -3,9 C 53 % 75 % 1025,6 hPa 0,0 l/m 0,0 km/h (0 Bft) N 0,00 h 0,0 UV-I 0 W/m -7,6 C -3,9 C 0,0 km/h (0 Bft)
23.01.2017 18:00 23,3 C -6,3 C 53 % 77 % 1025,8 hPa 0,0 l/m 0,7 km/h (0 Bft) O-NO 0,00 h 0,0 UV-I 0 W/m -9,5 C -6,3 C 1,4 km/h (1 Bft)
23.01.2017 19:00 23,3 C -8,3 C 54 % 82 % 1025,9 hPa 0,0 l/m 0,0 km/h (0 Bft) N 0,00 h 0,0 UV-I 0 W/m -10,9 C -8,3 C 0,0 km/h (0 Bft)
23.01.2017 20:00 23,3 C -9,6 C 55 % 83 % 1025,9 hPa 0,0 l/m 0,1 km/h (0 Bft) N-NO 0,00 h 0,0 UV-I 0 W/m -11,9 C -9,6 C 0,2 km/h (0 Bft)
23.01.2017 21:00 23,5 C -10,8 C 55 % 84 % 1026,4 hPa 0,0 l/m 0,3 km/h (0 Bft) NW 0,00 h 0,0 UV-I 0 W/m -13,0 C -10,8 C 1,0 km/h (0 Bft)
23.01.2017 22:00 23,8 C -11,8 C 54 % 87 % 1026,4 hPa 0,0 l/m 0,0 km/h (0 Bft) N-NO 0,00 h 0,0 UV-I 0 W/m -13,6 C -11,8 C 0,2 km/h (0 Bft)
23.01.2017 23:00 23,5 C -12,8 C 54 % 86 % 1026,5 hPa 0,0 l/m 0,0 km/h (0 Bft) N 0,00 h 0,0 UV-I 0 W/m -14,6 C -12,8 C 0,1 km/h (0 Bft)
24.01.2017 00:00 23,0 C -13,6 C 54 % 86 % 1026,9 hPa 0,0 l/m 0,0 km/h (0 Bft) N 0,00 h 0,0 UV-I 0 W/m -15,4 C -13,6 C 0,2 km/h (0 Bft)
24.01.2017 01:00 22,8 C -14,3 C 55 % 86 % 1027,1 hPa 0,0 l/m 0,0 km/h (0 Bft) N 0,00 h 0,0 UV-I 0 W/m -16,1 C -14,3 C 0,0 km/h (0 Bft)
24.01.2017 02:00 22,7 C -14,8 C 55 % 86 % 1027,2 hPa 0,0 l/m 0,0 km/h (0 Bft) N 0,00 h 0,0 UV-I 0 W/m -16,6 C -14,8 C 0,0 km/h (0 Bft)
24.01.2017 03:00 22,6 C -15,2 C 55 % 86 % 1027,2 hPa 0,0 l/m 0,0 km/h (0 Bft) N 0,00 h 0,0 UV-I 0 W/m -16,9 C -15,2 C 0,0 km/h (0 Bft)
24.01.2017 04:00 22,4 C -15,0 C 55 % 87 % 1027,5 hPa 0,0 l/m 0,0 km/h (0 Bft) N 0,00 h 0,0 UV-I 0 W/m -16,7 C -15,0 C 0,0 km/h (0 Bft)
24.01.2017 05:00 22,3 C -14,3 C 55 % 88 % 1027,6 hPa 0,0 l/m 0,1 km/h (0 Bft) O-NO 0,00 h 0,0 UV-I 0 W/m -15,9 C -14,3 C 0,5 km/h (0 Bft)
24.01.2017 06:00 22,2 C -13,1 C 55 % 89 % 1027,8 hPa 0,0 l/m 1,0 km/h (0 Bft) O-NO 0,00 h 0,0 UV-I 0 W/m -14,5 C -13,1 C 2,6 km/h (1 Bft)
24.01.2017 07:00 22,4 C -11,3 C 56 % 91 % 1028,5 hPa 0,0 l/m 2,2 km/h (1 Bft) O-NO 0,00 h 0,0 UV-I 0 W/m -12,5 C -11,4 C 5,2 km/h (1 Bft)
24.01.2017 08:00 22,7 C -10,8 C 56 % 91 % 1029,1 hPa 0,0 l/m 1,1 km/h (1 Bft) O-NO 0,00 h 0,0 UV-I 15 W/m -11,9 C -10,8 C 2,6 km/h (1 Bft)
24.01.2017 09:00 22,8 C -10,0 C 56 % 92 % 1029,6 hPa 0,0 l/m 0,7 km/h (0 Bft) O-NO 0,00 h 0,0 UV-I 48 W/m -11,1 C -10,0 C 1,9 km/h (1 Bft)
24.01.2017 10:00 22,7 C -9,2 C 54 % 90 % 1030,0 hPa 0,0 l/m 1,4 km/h (1 Bft) O-NO 0,00 h 0,6 UV-I 93 W/m -10,5 C -9,2 C 3,4 km/h (1 Bft)
24.01.2017 11:00 22,7 C -8,1 C 54 % 85 % 1030,0 hPa 0,0 l/m 2,7 km/h (1 Bft) N 0,00 h 0,7 UV-I 127 W/m -10,1 C -8,1 C 5,1 km/h (1 Bft)
24.01.2017 12:00 22,8 C -7,6 C 53 % 84 % 1029,9 hPa 0,0 l/m 3,6 km/h (1 Bft) N 0,00 h 0,8 UV-I 142 W/m -9,8 C -7,7 C 6,1 km/h (2 Bft)
24.01.2017 13:00 23,0 C -7,2 C 54 % 84 % 1029,7 hPa 0,0 l/m 1,0 km/h (0 Bft) N 0,00 h 0,6 UV-I 114 W/m -9,3 C -7,2 C 2,4 km/h (1 Bft)
24.01.2017 14:00 23,2 C -7,2 C 54 % 86 % 1029,9 hPa 0,0 l/m 2,0 km/h (1 Bft) O 0,00 h 0,5 UV-I 74 W/m -9,1 C -7,2 C 5,2 km/h (1 Bft)
24.01.2017 15:00 23,2 C -6,5 C 54 % 85 % 1030,4 hPa 0,0 l/m 2,0 km/h (1 Bft) N 0,00 h 0,0 UV-I 54 W/m -8,7 C -6,6 C 4,1 km/h (1 Bft)
24.01.2017 16:00 23,2 C -6,5 C 54 % 85 % 1030,8 hPa 0,0 l/m 2,1 km/h (1 Bft) N-NW 0,00 h 0,0 UV-I 16 W/m -8,6 C -6,6 C 3,7 km/h (1 Bft)
24.01.2017 17:00 23,0 C -6,7 C 55 % 86 % 1031,2 hPa 0,0 l/m 1,0 km/h (0 Bft) NW 0,00 h 0,0 UV-I 0 W/m -8,6 C -6,7 C 2,5 km/h (1 Bft)
24.01.2017 18:00 23,1 C -6,8 C 55 % 87 % 1031,4 hPa 0,0 l/m 1,6 km/h (1 Bft) NW 0,00 h 0,0 UV-I 0 W/m -8,6 C -6,8 C 2,6 km/h (1 Bft)
24.01.2017 19:00 23,1 C -6,7 C 55 % 88 % 1031,9 hPa 0,0 l/m 0,8 km/h (0 Bft) NW 0,00 h 0,0 UV-I 0 W/m -8,4 C -6,7 C 1,8 km/h (1 Bft)
24.01.2017 20:00 23,2 C -6,3 C 57 % 89 % 1032,4 hPa 0,0 l/m 0,5 km/h (0 Bft) N-NO 0,00 h 0,0 UV-I 0 W/m -7,8 C -6,3 C 1,7 km/h (1 Bft)
24.01.2017 21:00 23,3 C -6,0 C 58 % 89 % 1032,6 hPa 0,0 l/m 0,7 km/h (0 Bft) NW 0,00 h 0,0 UV-I 0 W/m -7,4 C -6,0 C 1,7 km/h (1 Bft)
24.01.2017 22:00 23,6 C -6,0 C 57 % 90 % 1032,5 hPa 0,0 l/m 0,5 km/h (0 Bft) NW 0,00 h 0,0 UV-I 0 W/m -7,4 C -6,0 C 1,5 km/h (1 Bft)
24.01.2017 23:00 23,7 C -5,7 C 56 % 90 % 1032,7 hPa 0,0 l/m 0,0 km/h (0 Bft) N 0,00 h 0,0 UV-I 0 W/m -7,1 C -5,7 C 0,0 km/h (0 Bft)
25.01.2017 00:00 23,2 C -5,3 C 57 % 91 % 1032,6 hPa 0,0 l/m 0,2 km/h (0 Bft) O-NO 0,00 h 0,0 UV-I 0 W/m -6,5 C -5,3 C 1,1 km/h (1 Bft)
25.01.2017 01:00 22,8 C -4,8 C 57 % 91 % 1032,4 hPa 0,0 l/m 0,4 km/h (0 Bft) O-NO 0,00 h 0,0 UV-I 0 W/m -6,1 C -4,8 C 1,8 km/h (1 Bft)
25.01.2017 02:00 22,6 C -4,6 C 57 % 89 % 1032,2 hPa 0,0 l/m 1,5 km/h (1 Bft) O-NO 0,00 h 0,0 UV-I 0 W/m -6,0 C -4,6 C 4,3 km/h (1 Bft)
25.01.2017 03:00 22,5 C -4,4 C 57 % 89 % 1032,1 hPa 0,0 l/m 1,9 km/h (1 Bft) O-NO 0,00 h 0,0 UV-I 0 W/m -5,9 C -4,4 C 4,8 km/h (1 Bft)
25.01.2017 04:00 22,4 C -4,3 C 57 % 88 % 1032,0 hPa 0,0 l/m 1,1 km/h (1 Bft) O-NO 0,00 h 0,0 UV-I 0 W/m -5,9 C -4,3 C 3,4 km/h (1 Bft)
25.01.2017 05:00 22,3 C -4,2 C 57 % 88 % 1032,0 hPa 0,0 l/m 1,2 km/h (1 Bft) O-NO 0,00 h 0,0 UV-I 0 W/m -5,9 C -4,2 C 3,3 km/h (1 Bft)
25.01.2017 06:00 22,2 C -4,1 C 57 % 88 % 1031,9 hPa 0,0 l/m 0,1 km/h (0 Bft) O-SO 0,00 h 0,0 UV-I 0 W/m -5,8 C -4,1 C 0,5 km/h (0 Bft)
25.01.2017 07:00 22,3 C -4,1 C 57 % 88 % 1032,2 hPa 0,0 l/m 0,1 km/h (0 Bft) O 0,00 h 0,0 UV-I 0 W/m -5,8 C -4,1 C 0,5 km/h (0 Bft)
25.01.2017 08:00 22,9 C -3,9 C 57 % 88 % 1032,4 hPa 0,0 l/m 1,7 km/h (1 Bft) O-NO 0,00 h 0,0 UV-I 13 W/m -5,6 C -3,9 C 4,0 km/h (1 Bft)
25.01.2017 09:00 23,0 C -3,4 C 56 % 87 % 1032,5 hPa 0,0 l/m 2,1 km/h (1 Bft) O-NO 0,00 h 0,0 UV-I 41 W/m -5,3 C -3,4 C 4,8 km/h (1 Bft)
25.01.2017 10:00 22,8 C -2,8 C 56 % 86 % 1032,6 hPa 0,0 l/m 3,2 km/h (1 Bft) O-NO 0,00 h 0,6 UV-I 80 W/m -4,9 C -3,0 C 7,1 km/h (2 Bft)
25.01.2017 11:00 22,9 C -2,3 C 54 % 84 % 1032,5 hPa 0,0 l/m 4,2 km/h (1 Bft) O-NO 0,02 h 0,8 UV-I 126 W/m -4,7 C -2,4 C 8,2 km/h (2 Bft)
25.01.2017 12:00 22,8 C -2,0 C 52 % 82 % 1032,0 hPa 0,0 l/m 5,2 km/h (1 Bft) O-NO 0,07 h 0,8 UV-I 132 W/m -4,6 C -2,7 C 10,5 km/h (2 Bft)
25.01.2017 13:00 23,4 C -2,0 C 53 % 82 % 1031,7 hPa 0,0 l/m 7,4 km/h (2 Bft) O-NO 0,00 h 0,6 UV-I 88 W/m -4,7 C -3,7 C 10,0 km/h (2 Bft)
25.01.2017 14:00 23,8 C -2,1 C 53 % 83 % 1031,3 hPa 0,0 l/m 5,3 km/h (1 Bft) O-NO 0,00 h 0,5 UV-I 69 W/m -4,6 C -2,8 C 10,5 km/h (2 Bft)
25.01.2017 15:00 23,7 C -2,3 C 53 % 83 % 1031,3 hPa 0,0 l/m 6,3 km/h (2 Bft) O-NO 0,00 h 0,0 UV-I 33 W/m -4,8 C -3,4 C 12,1 km/h (2 Bft)
25.01.2017 16:00 23,5 C -2,9 C 54 % 82 % 1031,5 hPa 0,0 l/m 5,1 km/h (1 Bft) O-NO 0,00 h 0,0 UV-I 11 W/m -5,5 C -3,5 C 10,9 km/h (2 Bft)
25.01.2017 17:00 23,3 C -3,1 C 55 % 81 % 1031,8 hPa 0,0 l/m 4,6 km/h (1 Bft) O-NO 0,00 h 0,0 UV-I 0 W/m -5,8 C -3,6 C 9,8 km/h (2 Bft)
25.01.2017 18:00 23,7 C -3,0 C 55 % 83 % 1031,8 hPa 0,0 l/m 4,5 km/h (1 Bft) O-NO 0,00 h 0,0 UV-I 0 W/m -5,5 C -3,7 C 9,9 km/h (2 Bft)
25.01.2017 19:00 23,7 C -2,8 C 55 % 83 % 1031,7 hPa 0,0 l/m 4,7 km/h (1 Bft) O 0,00 h 0,0 UV-I 0 W/m -5,4 C -3,7 C 10,8 km/h (2 Bft)
25.01.2017 20:00 23,4 C -3,0 C 55 % 83 % 1031,8 hPa 0,0 l/m 6,3 km/h (2 Bft) O-SO 0,00 h 0,0 UV-I 0 W/m -5,5 C -4,5 C 12,9 km/h (3 Bft)
25.01.2017 21:00 23,6 C -3,2 C 56 % 83 % 1032,0 hPa 0,0 l/m 4,9 km/h (1 Bft) O-SO 0,00 h 0,0 UV-I 0 W/m -5,5 C -3,7 C 10,2 km/h (2 Bft)
25.01.2017 22:00 23,7 C -3,3 C 56 % 83 % 1031,8 hPa 0,0 l/m 3,3 km/h (1 Bft) O-SO 0,00 h 0,0 UV-I 0 W/m -5,7 C -3,7 C 7,6 km/h (2 Bft)
25.01.2017 23:00 23,5 C -3,2 C 56 % 83 % 1031,7 hPa 0,0 l/m 2,2 km/h (1 Bft) O-NO 0,00 h 0,0 UV-I 0 W/m -5,7 C -3,4 C 5,3 km/h (1 Bft)
26.01.2017 00:00 23,1 C -3,1 C 56 % 83 % 1031,9 hPa 0,0 l/m 2,2 km/h (1 Bft) O 0,00 h 0,0 UV-I 0 W/m -5,5 C -3,2 C 5,9 km/h (2 Bft)
26.01.2017 01:00 22,9 C -2,9 C 56 % 83 % 1031,6 hPa 0,0 l/m 3,2 km/h (1 Bft) O 0,00 h 0,0 UV-I 0 W/m -5,4 C -3,1 C 8,5 km/h (2 Bft)
26.01.2017 02:00 22,7 C -2,8 C 56 % 83 % 1031,3 hPa 0,0 l/m 4,5 km/h (1 Bft) O-NO 0,00 h 0,0 UV-I 0 W/m -5,2 C -3,2 C 9,0 km/h (2 Bft)
26.01.2017 03:00 22,6 C -2,6 C 56 % 83 % 1030,9 hPa 0,0 l/m 4,4 km/h (1 Bft) O 0,00 h 0,0 UV-I 0 W/m -5,1 C -3,2 C 9,6 km/h (2 Bft)
26.01.2017 04:00 22,5 C -2,6 C 57 % 83 % 1030,6 hPa 0,0 l/m 4,6 km/h (1 Bft) O-SO 0,00 h 0,0 UV-I 0 W/m -5,0 C -3,3 C 10,3 km/h (2 Bft)
26.01.2017 05:00 22,4 C -2,5 C 57 % 83 % 1030,4 hPa 0,0 l/m 3,7 km/h (1 Bft) O 0,00 h 0,0 UV-I 0 W/m -5,0 C -2,8 C 8,9 km/h (2 Bft)
26.01.2017 06:00 22,5 C -2,6 C 58 % 83 % 1030,0 hPa 0,0 l/m 3,4 km/h (1 Bft) O 0,00 h 0,0 UV-I 0 W/m -5,1 C -2,9 C 7,7 km/h (2 Bft)
26.01.2017 07:00 22,8 C -2,7 C 58 % 83 % 1029,9 hPa 0,0 l/m 3,8 km/h (1 Bft) O-NO 0,00 h 0,0 UV-I 5 W/m -5,2 C -3,0 C 9,0 km/h (2 Bft)
26.01.2017 08:00 22,8 C -2,8 C 57 % 83 % 1029,7 hPa 0,0 l/m 5,5 km/h (1 Bft) O 0,00 h 0,0 UV-I 33 W/m -5,2 C -3,7 C 10,4 km/h (2 Bft)
26.01.2017 09:00 22,8 C -2,5 C 58 % 83 % 1029,7 hPa 0,0 l/m 6,5 km/h (2 Bft) O-SO 0,02 h 0,6 UV-I 100 W/m -5,0 C -3,9 C 13,2 km/h (3 Bft)
26.01.2017 10:00 22,7 C -2,1 C 57 % 81 % 1029,7 hPa 0,0 l/m 9,8 km/h (2 Bft) O 0,55 h 0,8 UV-I 187 W/m -5,0 C -5,6 C 20,3 km/h (4 Bft)
26.01.2017 11:00 22,8 C -1,2 C 57 % 78 % 1029,7 hPa 0,0 l/m 7,8 km/h (2 Bft) O-NO 1,00 h 1,2 UV-I 372 W/m -4,5 C -3,2 C 16,4 km/h (3 Bft)
26.01.2017 12:00 23,1 C -0,6 C 54 % 76 % 1029,1 hPa 0,0 l/m 9,3 km/h (2 Bft) O-NO 1,00 h 1,3 UV-I 365 W/m -4,3 C -3,4 C 18,4 km/h (3 Bft)
26.01.2017 13:00 23,3 C -0,3 C 51 % 74 % 1028,5 hPa 0,0 l/m 6,6 km/h (2 Bft) O 1,00 h 1,1 UV-I 321 W/m -4,3 C -1,8 C 14,5 km/h (3 Bft)
26.01.2017 14:00 23,1 C 0,1 C 48 % 72 % 1028,2 hPa 0,0 l/m 6,3 km/h (2 Bft) O 0,95 h 0,8 UV-I 207 W/m -4,4 C -1,2 C 13,6 km/h (3 Bft)
26.01.2017 15:00 23,2 C -0,0 C 49 % 71 % 1027,9 hPa 0,0 l/m 13,2 km/h (3 Bft) O-NO 0,18 h 0,5 UV-I 118 W/m -4,7 C -5,7 C 21,5 km/h (4 Bft)
26.01.2017 16:00 23,1 C -0,8 C 49 % 74 % 1027,7 hPa 0,0 l/m 12,0 km/h (2 Bft) O-NO 0,00 h 0,0 UV-I 34 W/m -5,0 C -5,8 C 20,6 km/h (4 Bft)
26.01.2017 17:00 23,1 C -1,5 C 49 % 76 % 1027,7 hPa 0,0 l/m 13,6 km/h (3 Bft) O-NO 0,00 h 0,0 UV-I 5 W/m -5,1 C -7,7 C 18,4 km/h (3 Bft)
26.01.2017 18:00 23,5 C -1,9 C 50 % 77 % 1027,6 hPa 0,0 l/m 10,5 km/h (2 Bft) O-NO 0,00 h 0,0 UV-I 0 W/m -5,3 C -5,8 C 17,4 km/h (3 Bft)
26.01.2017 19:00 23,4 C -2,3 C 51 % 79 % 1027,3 hPa 0,0 l/m 9,9 km/h (2 Bft) O-NO 0,00 h 0,0 UV-I 0 W/m -5,5 C -5,8 C 17,4 km/h (3 Bft)
26.01.2017 20:00 23,2 C -2,6 C 52 % 79 % 1027,0 hPa 0,0 l/m 8,6 km/h (2 Bft) O-NO 0,00 h 0,0 UV-I 0 W/m -5,7 C -5,5 C 15,7 km/h (3 Bft)
26.01.2017 21:00 23,6 C -2,9 C 52 % 80 % 1026,9 hPa 0,0 l/m 5,3 km/h (1 Bft) O-NO 0,00 h 0,0 UV-I 0 W/m -6,0 C -3,6 C 11,4 km/h (2 Bft)
26.01.2017 22:00 23,9 C -3,3 C 51 % 80 % 1027,0 hPa 0,0 l/m 6,1 km/h (2 Bft) O-NO 0,00 h 0,0 UV-I 0 W/m -6,3 C -4,1 C 11,5 km/h (2 Bft)
26.01.2017 23:00 23,4 C -3,7 C 52 % 81 % 1026,8 hPa 0,0 l/m 6,1 km/h (2 Bft) O 0,00 h 0,0 UV-I 0 W/m -6,5 C -4,7 C 12,7 km/h (3 Bft)
27.01.2017 00:00 23,0 C -4,0 C 52 % 81 % 1026,6 hPa 0,0 l/m 2,5 km/h (1 Bft) O-SO 0,00 h 0,0 UV-I 0 W/m -6,7 C -4,1 C 7,6 km/h (2 Bft)
27.01.2017 01:00 22,8 C -4,5 C 53 % 82 % 1026,3 hPa 0,0 l/m 3,6 km/h (1 Bft) O 0,00 h 0,0 UV-I 0 W/m -7,0 C -5,1 C 7,4 km/h (2 Bft)
27.01.2017 02:00 22,7 C -5,1 C 53 % 83 % 1026,3 hPa 0,0 l/m 0,5 km/h (0 Bft) O 0,00 h 0,0 UV-I 0 W/m -7,6 C -5,1 C 1,5 km/h (1 Bft)
27.01.2017 03:00 22,6 C -6,2 C 53 % 85 % 1026,1 hPa 0,0 l/m 1,9 km/h (1 Bft) NO 0,00 h 0,0 UV-I 0 W/m -8,3 C -6,2 C 4,1 km/h (1 Bft)
27.01.2017 04:00 22,4 C -6,0 C 53 % 87 % 1025,9 hPa 0,0 l/m 5,8 km/h (2 Bft) O-NO 0,00 h 0,0 UV-I 0 W/m -7,8 C -6,8 C 11,1 km/h (2 Bft)
27.01.2017 05:00 22,3 C -6,1 C 54 % 87 % 1025,9 hPa 0,0 l/m 4,1 km/h (1 Bft) O 0,00 h 0,0 UV-I 0 W/m -7,9 C -6,3 C 9,4 km/h (2 Bft)
27.01.2017 06:00 22,3 C -6,3 C 54 % 88 % 1025,9 hPa 0,0 l/m 3,4 km/h (1 Bft) O 0,00 h 0,0 UV-I 0 W/m -8,0 C -6,3 C 8,1 km/h (2 Bft)
27.01.2017 07:00 22,4 C -6,6 C 54 % 88 % 1026,4 hPa 0,0 l/m 4,3 km/h (1 Bft) O-NO 0,00 h 0,0 UV-I 5 W/m -8,2 C -6,8 C 9,4 km/h (2 Bft)
27.01.2017 08:00 23,0 C -6,3 C 53 % 89 % 1026,8 hPa 0,0 l/m 5,0 km/h (1 Bft) O-NO 0,00 h 0,0 UV-I 45 W/m -7,9 C -7,0 C 10,5 km/h (2 Bft)
27.01.2017 09:00 23,1 C -4,7 C 53 % 84 % 1026,9 hPa 0,0 l/m 6,0 km/h (2 Bft) O-NO 0,70 h 0,6 UV-I 166 W/m -6,9 C -5,4 C 11,2 km/h (2 Bft)
27.01.2017 10:00 23,2 C -3,4 C 54 % 79 % 1027,0 hPa 0,0 l/m 4,9 km/h (1 Bft) O-NO 1,00 h 0,9 UV-I 284 W/m -6,4 C -4,0 C 10,2 km/h (2 Bft)
27.01.2017 11:00 23,1 C -2,3 C 50 % 76 % 1026,6 hPa 0,0 l/m 1,8 km/h (1 Bft) O-NO 1,00 h 1,2 UV-I 359 W/m -5,9 C -2,3 C 4,7 km/h (1 Bft)
27.01.2017 12:00 23,3 C -1,0 C 48 % 74 % 1026,2 hPa 0,0 l/m 2,7 km/h (1 Bft) O-NO 1,00 h 1,3 UV-I 375 W/m -5,2 C -1,1 C 6,5 km/h (2 Bft)
27.01.2017 13:00 23,3 C -0,3 C 46 % 72 % 1025,6 hPa 0,0 l/m 4,8 km/h (1 Bft) O-NO 1,00 h 1,2 UV-I 345 W/m -4,8 C -0,8 C 9,3 km/h (2 Bft)
27.01.2017 14:00 23,2 C 0,0 C 45 % 70 % 1025,2 hPa 0,0 l/m 3,9 km/h (1 Bft) O-NO 1,00 h 0,8 UV-I 227 W/m -4,7 C -0,1 C 8,7 km/h (2 Bft)
27.01.2017 15:00 23,2 C -0,5 C 45 % 69 % 1025,0 hPa 0,0 l/m 5,9 km/h (2 Bft) O-NO 0,27 h 0,5 UV-I 150 W/m -5,4 C -1,2 C 12,4 km/h (3 Bft)
27.01.2017 16:00 23,4 C -2,0 C 45 % 73 % 1024,9 hPa 0,0 l/m 5,2 km/h (1 Bft) O-NO 0,00 h 0,5 UV-I 49 W/m -6,2 C -2,4 C 10,6 km/h (2 Bft)
27.01.2017 17:00 23,3 C -3,5 C 45 % 77 % 1024,7 hPa 0,0 l/m 6,4 km/h (2 Bft) O-NO 0,00 h 0,0 UV-I 0 W/m -6,9 C -4,6 C 12,8 km/h (3 Bft)
27.01.2017 18:00 23,6 C -4,6 C 46 % 81 % 1024,8 hPa 0,0 l/m 5,9 km/h (2 Bft) O-NO 0,00 h 0,0 UV-I 0 W/m -7,4 C -5,2 C 11,4 km/h (2 Bft)
27.01.2017 19:00 23,5 C -5,2 C 47 % 82 % 1024,9 hPa 0,0 l/m 5,9 km/h (2 Bft) O-NO 0,00 h 0,0 UV-I 0 W/m -7,7 C -5,9 C 12,0 km/h (2 Bft)
27.01.2017 20:00 23,3 C -5,9 C 48 % 85 % 1024,7 hPa 0,0 l/m 4,0 km/h (1 Bft) O-NO 0,00 h 0,0 UV-I 0 W/m -8,0 C -6,3 C 8,4 km/h (2 Bft)
27.01.2017 21:00 23,6 C -6,2 C 50 % 86 % 1024,4 hPa 0,0 l/m 4,5 km/h (1 Bft) O-NO 0,00 h 0,0 UV-I 0 W/m -8,1 C -6,6 C 10,0 km/h (2 Bft)
27.01.2017 22:00 23,9 C -6,7 C 50 % 88 % 1024,0 hPa 0,0 l/m 4,8 km/h (1 Bft) O-NO 0,00 h 0,0 UV-I 0 W/m -8,4 C -7,2 C 10,5 km/h (2 Bft)
27.01.2017 23:00 23,9 C -6,9 C 49 % 89 % 1024,1 hPa 0,0 l/m 4,1 km/h (1 Bft) O-NO 0,00 h 0,0 UV-I 0 W/m -8,4 C -7,1 C 8,3 km/h (2 Bft)
28.01.2017 00:00 23,3 C -7,5 C 50 % 89 % 1024,1 hPa 0,0 l/m 2,9 km/h (1 Bft) O 0,00 h 0,0 UV-I 0 W/m -8,9 C -7,6 C 6,1 km/h (2 Bft)
28.01.2017 01:00 23,0 C -7,8 C 50 % 90 % 1023,6 hPa 0,0 l/m 3,9 km/h (1 Bft) O-NO 0,00 h 0,0 UV-I 0 W/m -9,1 C -8,2 C 8,6 km/h (2 Bft)
28.01.2017 02:00 22,8 C -8,3 C 51 % 91 % 1023,5 hPa 0,0 l/m 3,3 km/h (1 Bft) O-NO 0,00 h 0,0 UV-I 0 W/m -9,6 C -8,6 C 7,2 km/h (2 Bft)
28.01.2017 03:00 22,9 C -9,9 C 51 % 89 % 1023,3 hPa 0,0 l/m 0,5 km/h (0 Bft) O-NO 0,00 h 0,0 UV-I 0 W/m -11,5 C -9,9 C 2,0 km/h (1 Bft)
28.01.2017 04:00 23,3 C -11,2 C 51 % 88 % 1023,2 hPa 0,0 l/m 0,9 km/h (0 Bft) O-NO 0,00 h 0,0 UV-I 0 W/m -12,7 C -11,2 C 2,4 km/h (1 Bft)
28.01.2017 05:00 23,2 C -12,3 C 51 % 88 % 1023,2 hPa 0,0 l/m 0,1 km/h (0 Bft) O 0,00 h 0,0 UV-I 0 W/m -13,9 C -12,3 C 0,5 km/h (0 Bft)
28.01.2017 06:00 23,1 C -13,2 C 51 % 87 % 1023,3 hPa 0,0 l/m 0,0 km/h (0 Bft) O 0,00 h 0,0 UV-I 0 W/m -14,9 C -13,2 C 0,2 km/h (0 Bft)
28.01.2017 07:00 22,9 C -14,0 C 51 % 87 % 1023,7 hPa 0,0 l/m 0,0 km/h (0 Bft) N 0,00 h 0,0 UV-I 5 W/m -15,7 C -14,0 C 0,1 km/h (0 Bft)
28.01.2017 08:00 22,9 C -14,0 C 52 % 88 % 1024,0 hPa 0,0 l/m 0,0 km/h (0 Bft) N 0,00 h 0,0 UV-I 38 W/m -15,5 C -14,0 C 0,3 km/h (0 Bft)
28.01.2017 09:00 23,1 C -11,6 C 52 % 87 % 1024,2 hPa 0,0 l/m 0,0 km/h (0 Bft) N 0,48 h 0,6 UV-I 140 W/m -13,3 C -11,6 C 0,0 km/h (0 Bft)
28.01.2017 10:00 23,0 C -7,7 C 52 % 82 % 1024,3 hPa 0,0 l/m 0,0 km/h (0 Bft) N 1,00 h 0,9 UV-I 285 W/m -10,3 C -7,7 C 0,0 km/h (0 Bft)
28.01.2017 11:00 23,0 C -5,2 C 52 % 80 % 1024,3 hPa 0,0 l/m 0,0 km/h (0 Bft) N 1,00 h 1,3 UV-I 349 W/m -8,1 C -5,2 C 0,0 km/h (0 Bft)
28.01.2017 12:00 23,0 C -3,9 C 51 % 77 % 1024,0 hPa 0,0 l/m 0,0 km/h (0 Bft) N 1,00 h 1,4 UV-I 361 W/m -7,3 C -3,9 C 0,0 km/h (0 Bft)
28.01.2017 13:00 22,8 C -2,6 C 49 % 74 % 1023,4 hPa 0,0 l/m 0,0 km/h (0 Bft) N 1,00 h 1,2 UV-I 331 W/m -6,6 C -2,6 C 0,0 km/h (0 Bft)
28.01.2017 14:00 22,9 C -1,9 C 47 % 71 % 1023,4 hPa 0,0 l/m 0,0 km/h (0 Bft) N 1,00 h 0,8 UV-I 220 W/m -6,5 C -1,9 C 0,0 km/h (0 Bft)
28.01.2017 15:00 23,0 C -1,9 C 47 % 73 % 1023,5 hPa 0,0 l/m 0,0 km/h (0 Bft) N 0,28 h 0,5 UV-I 117 W/m -6,1 C -1,9 C 0,0 km/h (0 Bft)
28.01.2017 16:00 23,1 C -3,5 C 46 % 79 % 1024,2 hPa 0,0 l/m 0,4 km/h (0 Bft) O-NO 0,00 h 0,0 UV-I 26 W/m -6,6 C -3,5 C 0,9 km/h (0 Bft)
28.01.2017 17:00 23,2 C -5,0 C 47 % 81 % 1024,6 hPa 0,0 l/m 2,4 km/h (1 Bft) O-NO 0,00 h 0,0 UV-I 0 W/m -7,8 C -5,0 C 4,6 km/h (1 Bft)
28.01.2017 18:00 23,2 C -6,7 C 49 % 83 % 1024,9 hPa 0,0 l/m 2,1 km/h (1 Bft) O-NO 0,00 h 0,0 UV-I 0 W/m -9,1 C -6,7 C 4,1 km/h (1 Bft)
28.01.2017 19:00 23,5 C -8,0 C 51 % 85 % 1025,4 hPa 0,0 l/m 0,2 km/h (0 Bft) O-NO 0,00 h 0,0 UV-I 0 W/m -10,1 C -8,0 C 0,8 km/h (0 Bft)
28.01.2017 20:00 23,5 C -9,4 C 51 % 86 % 1025,6 hPa 0,0 l/m 0,1 km/h (0 Bft) O-NO 0,00 h 0,0 UV-I 0 W/m -11,3 C -9,4 C 0,7 km/h (0 Bft)
28.01.2017 21:00 23,4 C -10,1 C 53 % 88 % 1025,9 hPa 0,0 l/m 0,0 km/h (0 Bft) N 0,00 h 0,0 UV-I 0 W/m -11,7 C -10,1 C 0,0 km/h (0 Bft)
28.01.2017 22:00 23,5 C -10,7 C 53 % 88 % 1026,2 hPa 0,0 l/m 0,0 km/h (0 Bft) N 0,00 h 0,0 UV-I 0 W/m -12,4 C -10,7 C 0,0 km/h (0 Bft)
28.01.2017 23:00 23,4 C -11,1 C 53 % 88 % 1026,7 hPa 0,0 l/m 0,0 km/h (0 Bft) N 0,00 h 0,0 UV-I 0 W/m -12,7 C -11,1 C 0,0 km/h (0 Bft)
29.01.2017 00:00 23,1 C -11,5 C 53 % 88 % 1026,7 hPa 0,0 l/m 0,0 km/h (0 Bft) N 0,00 h 0,0 UV-I 0 W/m -13,1 C -11,5 C 0,0 km/h (0 Bft)
29.01.2017 01:00 22,8 C -12,1 C 53 % 88 % 1026,6 hPa 0,0 l/m 0,0 km/h (0 Bft) N 0,00 h 0,0 UV-I 0 W/m -13,6 C -12,1 C 0,0 km/h (0 Bft)
29.01.2017 02:00 22,6 C -12,3 C 53 % 88 % 1026,7 hPa 0,0 l/m 0,0 km/h (0 Bft) N 0,00 h 0,0 UV-I 0 W/m -13,9 C -12,3 C 0,0 km/h (0 Bft)
29.01.2017 03:00 22,4 C -12,7 C 53 % 88 % 1027,0 hPa 0,0 l/m 0,0 km/h (0 Bft) N 0,00 h 0,0 UV-I 0 W/m -14,2 C -12,7 C 0,0 km/h (0 Bft)
29.01.2017 04:00 22,3 C -12,8 C 53 % 88 % 1027,1 hPa 0,0 l/m 0,1 km/h (0 Bft) N 0,00 h 0,0 UV-I 0 W/m -14,4 C -12,8 C 0,5 km/h (0 Bft)
29.01.2017 05:00 22,2 C -13,2 C 53 % 88 % 1027,3 hPa 0,0 l/m 0,0 km/h (0 Bft) N 0,00 h 0,0 UV-I 0 W/m -14,8 C -13,2 C 0,0 km/h (0 Bft)
29.01.2017 06:00 22,1 C -13,4 C 53 % 88 % 1027,6 hPa 0,0 l/m 0,0 km/h (0 Bft) N 0,00 h 0,0 UV-I 0 W/m -14,9 C -13,4 C 0,0 km/h (0 Bft)
29.01.2017 07:00 22,2 C -13,6 C 53 % 88 % 1027,9 hPa 0,0 l/m 0,0 km/h (0 Bft) N 0,00 h 0,0 UV-I 8 W/m -15,1 C -13,6 C 0,1 km/h (0 Bft)
29.01.2017 08:00 22,7 C -13,1 C 53 % 89 % 1028,2 hPa 0,0 l/m 0,1 km/h (0 Bft) N 0,00 h 0,0 UV-I 47 W/m -14,5 C -13,1 C 0,3 km/h (0 Bft)
29.01.2017 09:00 22,9 C -10,9 C 53 % 85 % 1028,1 hPa 0,0 l/m 0,1 km/h (0 Bft) O 0,62 h 0,6 UV-I 168 W/m -12,9 C -10,9 C 0,4 km/h (0 Bft)
29.01.2017 10:00 23,0 C -6,8 C 51 % 79 % 1027,8 hPa 0,0 l/m 0,0 km/h (0 Bft) W-NW 1,00 h 0,9 UV-I 265 W/m -9,8 C -6,8 C 0,1 km/h (0 Bft)
29.01.2017 11:00 22,9 C -3,1 C 49 % 75 % 1027,5 hPa 0,0 l/m 1,0 km/h (0 Bft) W-NW 1,00 h 1,3 UV-I 347 W/m -6,9 C -3,1 C 2,0 km/h (1 Bft)
29.01.2017 12:00 22,4 C -0,3 C 42 % 69 % 1026,9 hPa 0,0 l/m 0,0 km/h (0 Bft) N 1,00 h 1,4 UV-I 371 W/m -5,2 C -0,3 C 0,0 km/h (0 Bft)
29.01.2017 13:00 22,7 C 0,5 C 45 % 67 % 1026,2 hPa 0,0 l/m 0,1 km/h (0 Bft) W-SW 1,00 h 1,2 UV-I 343 W/m -4,8 C 0,5 C 0,5 km/h (0 Bft)
29.01.2017 14:00 22,5 C 1,5 C 42 % 63 % 1026,0 hPa 0,0 l/m 0,0 km/h (0 Bft) S 1,00 h 0,9 UV-I 225 W/m -4,8 C 1,5 C 0,7 km/h (0 Bft)
29.01.2017 15:00 22,5 C 0,7 C 41 % 66 % 1025,9 hPa 0,0 l/m 0,2 km/h (0 Bft) W-SW 0,25 h 0,6 UV-I 124 W/m -4,9 C 0,7 C 1,0 km/h (0 Bft)
29.01.2017 16:00 22,9 C -0,3 C 43 % 70 % 1026,2 hPa 0,0 l/m 0,1 km/h (0 Bft) W 0,00 h 0,0 UV-I 29 W/m -5,2 C -0,3 C 0,7 km/h (0 Bft)
29.01.2017 17:00 22,9 C -1,2 C 44 % 72 % 1026,4 hPa 0,0 l/m 0,0 km/h (0 Bft) N 0,00 h 0,0 UV-I 0 W/m -5,7 C -1,2 C 0,2 km/h (0 Bft)
29.01.2017 18:00 22,5 C -2,9 C 42 % 75 % 1026,8 hPa 0,0 l/m 0,0 km/h (0 Bft) N 0,00 h 0,0 UV-I 0 W/m -6,7 C -2,9 C 0,0 km/h (0 Bft)
29.01.2017 19:00 22,7 C -4,6 C 44 % 79 % 1026,8 hPa 0,0 l/m 0,0 km/h (0 Bft) N 0,00 h 0,0 UV-I 0 W/m -7,7 C -4,6 C 0,0 km/h (0 Bft)
29.01.2017 20:00 22,9 C -5,9 C 47 % 82 % 1026,6 hPa 0,0 l/m 0,0 km/h (0 Bft) N 0,00 h 0,0 UV-I 0 W/m -8,6 C -5,9 C 0,0 km/h (0 Bft)
29.01.2017 21:00 23,2 C -7,0 C 47 % 84 % 1026,4 hPa 0,0 l/m 0,0 km/h (0 Bft) N 0,00 h 0,0 UV-I 0 W/m -9,3 C -7,0 C 0,0 km/h (0 Bft)
29.01.2017 22:00 23,2 C -7,9 C 48 % 85 % 1026,2 hPa 0,0 l/m 0,1 km/h (0 Bft) O 0,00 h 0,0 UV-I 0 W/m -10,0 C -7,9 C 0,3 km/h (0 Bft)
29.01.2017 23:00 22,9 C -8,8 C 48 % 85 % 1026,2 hPa 0,0 l/m 0,0 km/h (0 Bft) N 0,00 h 0,0 UV-I 0 W/m -10,7 C -8,8 C 0,1 km/h (0 Bft)
Min-Datum _ 29.01.17 24.01.17 29.01.17 29.01.17 28.01.17 - 23.01.17 - - - - 24.01.17 24.01.17 23.01.17
_ Min-Zeit 12:13 03:16 12:09 14:13 03:39 - 00:00 - - - - 03:16 03:16 00:14
Minimum _ 21,9 C -15,2 C 31 % 61 % 1023,1 hPa - 0,0 km/h (0 Bft) - - - - -17,0 C -15,2 C 0,0 km/h (0 Bft)
Max-Datum _ 27.01.17 29.01.17 24.01.17 24.01.17 24.01.17 23.01.17 26.01.17 - 29.01.17 28.01.17 26.01.17 26.01.17 29.01.17 26.01.17
_ Max-Zeit 22:42 14:10 21:06 08:43 22:59 00:00 15:57 - 10:09 11:52 11:47 13:43 14:10 10:12
Maximum _ 24,2 C 1,9 C 59 % 92 % 1032,8 hPa 0,0 l/m 20,9 km/h
O-NO (4 Bft)
- 0,07 h 1,4 UV-I 417 W/m -3,8 C 1,9 C 35,4 km/h
O (5 Bft)
Durchschnitt _ 23,0 C -6,2 C 52 % 83 % 1027,7 hPa #0,0 l/m 2,3 km/h (1 Bft) O-NO #27:47 h 0,9 UV-I 155 W/m -8,7 C -6,6 C 4,8 km/h (1 Bft)